Time;durP1;ratioP1;P1;durP2;ratioP2;P2;SDS_P1;SDS_P2;PMS_P1;PMS_P2;Temp;Humidity;BMP_temperature;BMP_pressure;BME280_temperature;BME280_humidity;BME280_pressure;Samples;Min_cycle;Max_cycle;Signal;HPM_P1;HPM_P2
2022/10/24 00:00:19;;;;;;;5.57;3.83;;;12.90;90.30;;;;;;5086578;28;20035;-83
2022/10/24 00:02:45;;;;;;;3.65;3.15;;;12.90;90.30;;;;;;5068818;28;20054;-83
2022/10/24 00:05:12;;;;;;;4.47;3.10;;;12.90;90.40;;;;;;5059396;28;20021;-84
2022/10/24 00:07:38;;;;;;;3.47;3.00;;;12.90;90.40;;;;;;5087922;28;20442;-83
2022/10/24 00:10:05;;;;;;;4.07;3.13;;;13.00;90.50;;;;;;5055530;28;20083;-83
2022/10/24 00:12:32;;;;;;;5.10;3.83;;;13.00;90.40;;;;;;5090156;28;20036;-83
2022/10/24 00:14:58;;;;;;;4.72;3.75;;;13.10;90.40;;;;;;5057851;28;20074;-83
2022/10/24 00:17:23;;;;;;;5.68;4.10;;;13.10;90.30;;;;;;5061592;28;20022;-83
2022/10/24 00:19:52;;;;;;;4.22;3.47;;;13.10;90.30;;;;;;5078746;28;20100;-83
2022/10/24 00:22:19;;;;;;;5.50;3.75;;;13.10;90.30;;;;;;5060515;28;20036;-83
2022/10/24 00:24:45;;;;;;;5.35;3.58;;;13.10;90.30;;;;;;5050858;28;20052;-85
2022/10/24 00:27:10;;;;;;;3.45;3.10;;;13.10;90.40;;;;;;5056513;28;20056;-85
2022/10/24 00:29:36;;;;;;;4.97;3.40;;;13.10;90.50;;;;;;5073031;28;20028;-85
2022/10/24 00:32:02;;;;;;;4.38;3.70;;;13.10;90.40;;;;;;5055817;28;20020;-85
2022/10/24 00:34:27;;;;;;;4.28;3.08;;;13.10;90.40;;;;;;5073466;28;20028;-85
2022/10/24 00:36:53;;;;;;;5.07;3.35;;;13.20;90.40;;;;;;5067429;28;20090;-85
2022/10/24 00:39:19;;;;;;;5.20;3.90;;;13.20;90.50;;;;;;5040347;28;20123;-85
2022/10/24 00:41:44;;;;;;;5.50;3.90;;;13.20;90.40;;;;;;5073196;28;20027;-85
2022/10/24 00:44:31;;;;;;;6.00;4.20;;;13.20;90.40;;;;;;5049552;28;20032;-85
2022/10/24 00:47:03;;;;;;;4.45;3.40;;;13.20;90.30;;;;;;5036005;28;20495;-85
2022/10/24 00:49:30;;;;;;;;;;;13.20;90.50;;;;;;5039628;28;20027;-85
2022/10/24 00:52:01;;;;;;;4.53;3.65;;;13.10;90.40;;;;;;5053953;28;19909;-85
2022/10/24 00:54:28;;;;;;;4.80;3.47;;;13.10;90.50;;;;;;5068289;28;20021;-85
2022/10/24 00:57:00;;;;;;;4.97;3.63;;;13.10;90.50;;;;;;5044200;28;20519;-85
2022/10/24 00:59:27;;;;;;;4.90;4.00;;;13.20;90.60;;;;;;5066559;28;20118;-85
2022/10/24 01:01:53;;;;;;;6.45;4.50;;;13.20;90.70;;;;;;5054000;28;20120;-85
2022/10/24 01:04:19;;;;;;;4.15;3.55;;;13.20;90.80;;;;;;5037113;28;20021;-85
2022/10/24 01:07:06;;;;;;;5.75;4.13;;;13.20;90.70;;;;;;5051716;28;20067;-85
2022/10/24 01:10:01;;;;;;;5.25;3.90;;;13.20;90.70;;;;;;5042602;28;20024;-85
2022/10/24 01:12:51;;;;;;;5.18;4.00;;;13.20;90.70;;;;;;5055520;28;20071;-85
2022/10/24 01:15:30;;;;;;;4.75;3.78;;;13.20;90.70;;;;;;5055333;28;20033;-84
2022/10/24 01:18:13;;;;;;;5.10;4.18;;;13.20;90.80;;;;;;5055497;28;20051;-85
2022/10/24 01:20:47;;;;;;;5.40;3.88;;;13.20;90.90;;;;;;5043646;28;20029;-85
2022/10/24 01:23:21;;;;;;;4.43;3.67;;;13.20;90.80;;;;;;5054632;28;20131;-85
2022/10/24 01:26:08;;;;;;;5.18;4.13;;;13.20;90.80;;;;;;5055656;28;20033;-85
2022/10/24 01:28:53;;;;;;;5.18;3.40;;;13.20;90.80;;;;;;5058907;28;20016;-85
2022/10/24 01:31:28;;;;;;;5.28;3.75;;;13.20;90.70;;;;;;5063216;28;20017;-85
2022/10/24 01:34:00;;;;;;;5.25;3.83;;;13.20;90.80;;;;;;5057737;28;20111;-85
2022/10/24 01:36:49;;;;;;;4.32;3.17;;;13.20;90.80;;;;;;5067139;28;20476;-85
2022/10/24 01:39:19;;;;;;;4.88;3.10;;;13.30;90.80;;;;;;5068237;28;20017;-83
2022/10/24 01:41:46;;;;;;;3.10;2.75;;;13.30;90.90;;;;;;5070541;28;20032;-83
2022/10/24 01:44:27;;;;;;;3.92;3.30;;;13.30;90.80;;;;;;5075742;28;20068;-83
2022/10/24 01:47:12;;;;;;;4.55;3.20;;;13.30;90.80;;;;;;5066626;28;20029;-83
2022/10/24 01:49:40;;;;;;;5.20;3.40;;;13.40;90.70;;;;;;5092845;28;20033;-83
2022/10/24 01:52:11;;;;;;;5.50;3.78;;;13.30;90.80;;;;;;5071932;28;20017;-83
2022/10/24 01:54:38;;;;;;;4.95;3.47;;;13.40;90.70;;;;;;5055338;28;20031;-83
2022/10/24 01:57:04;;;;;;;3.70;2.97;;;13.30;90.70;;;;;;5094809;28;20472;-83
2022/10/24 01:59:30;;;;;;;3.38;2.88;;;13.40;90.80;;;;;;5071295;28;20089;-83
2022/10/24 02:02:10;;;;;;;3.92;3.10;;;13.40;90.80;;;;;;5074274;28;20041;-83
2022/10/24 02:04:42;;;;;;;4.32;3.50;;;13.40;90.70;;;;;;5074154;28;20492;-83
2022/10/24 02:07:10;;;;;;;4.03;2.88;;;13.40;90.80;;;;;;5080273;28;20073;-83
2022/10/24 02:09:38;;;;;;;3.92;3.00;;;13.40;90.80;;;;;;5063263;28;20512;-83
2022/10/24 02:12:07;;;;;;;4.78;3.40;;;13.40;90.80;;;;;;5080769;28;20040;-83
2022/10/24 02:14:37;;;;;;;4.85;3.80;;;13.40;90.70;;;;;;5094002;28;20055;-83
2022/10/24 02:17:03;;;;;;;4.45;3.38;;;13.40;90.70;;;;;;5063506;28;20021;-83
2022/10/24 02:19:31;;;;;;;4.25;3.08;;;13.40;90.70;;;;;;5060835;28;20114;-83
2022/10/24 02:22:27;;;;;;;4.38;3.20;;;13.50;90.60;;;;;;5080120;28;20059;-83
2022/10/24 02:25:24;;;;;;;2.90;2.55;;;13.40;90.40;;;;;;5073412;28;20133;-83
2022/10/24 02:27:56;;;;;;;3.10;2.55;;;13.50;90.40;;;;;;5066542;28;20036;-83
2022/10/24 02:30:24;;;;;;;3.40;2.50;;;13.40;90.40;;;;;;5074509;28;20036;-83
2022/10/24 02:32:53;;;;;;;2.80;2.42;;;13.40;90.40;;;;;;5064510;28;20012;-83
2022/10/24 02:35:24;;;;;;;3.92;2.80;;;13.40;90.40;;;;;;5059150;28;20024;-83
2022/10/24 02:37:53;;;;;;;3.45;2.50;;;13.40;90.30;;;;;;5075787;28;20016;-83
2022/10/24 02:40:20;;;;;;;3.85;3.05;;;13.40;90.30;;;;;;5090640;28;20115;-83
2022/10/24 02:42:50;;;;;;;3.30;2.65;;;13.40;90.30;;;;;;5062358;28;20032;-83
2022/10/24 02:45:18;;;;;;;4.20;3.03;;;13.40;90.20;;;;;;5092133;28;20016;-83
2022/10/24 02:47:44;;;;;;;3.72;2.95;;;13.30;90.20;;;;;;5063301;28;20091;-83
2022/10/24 02:50:11;;;;;;;3.50;2.83;;;13.30;90.20;;;;;;5070391;28;20036;-83
2022/10/24 02:52:38;;;;;;;3.20;2.58;;;13.30;90.20;;;;;;5058596;28;20041;-83
2022/10/24 02:55:05;;;;;;;3.33;2.80;;;13.30;90.20;;;;;;5073713;28;20035;-83
2022/10/24 02:57:30;;;;;;;3.30;3.00;;;13.30;90.30;;;;;;5070411;28;20048;-83
2022/10/24 02:59:56;;;;;;;3.47;2.85;;;13.30;90.30;;;;;;5066295;28;20033;-83
2022/10/24 03:02:22;;;;;;;4.10;3.03;;;13.30;90.30;;;;;;5060759;28;20056;-82
2022/10/24 03:04:48;;;;;;;4.50;3.30;;;13.30;90.40;;;;;;5073400;28;20020;-83
2022/10/24 03:07:14;;;;;;;4.43;3.40;;;13.40;90.40;;;;;;5090057;28;20024;-84
2022/10/24 03:09:40;;;;;;;3.83;2.97;;;13.40;90.40;;;;;;5062253;28;20024;-83
2022/10/24 03:12:05;;;;;;;4.97;3.53;;;13.40;90.50;;;;;;5070721;28;20084;-83
2022/10/24 03:14:31;;;;;;;2.95;2.63;;;13.40;90.50;;;;;;5072514;28;20020;-83
2022/10/24 03:16:57;;;;;;;4.10;3.20;;;13.40;90.50;;;;;;5092794;28;20052;-83
2022/10/24 03:19:22;;;;;;;5.13;3.67;;;13.40;90.50;;;;;;5069491;28;20055;-83
2022/10/24 03:21:48;;;;;;;3.42;2.90;;;13.40;90.50;;;;;;5062934;28;20074;-83
2022/10/24 03:24:14;;;;;;;4.85;3.67;;;13.40;90.50;;;;;;5059356;28;20036;-83
2022/10/24 03:26:40;;;;;;;4.63;3.65;;;13.40;90.50;;;;;;5058367;28;20527;-83
2022/10/24 03:29:05;;;;;;;4.22;3.40;;;13.40;90.60;;;;;;5089385;28;20020;-83
2022/10/24 03:31:31;;;;;;;3.92;3.50;;;13.40;90.60;;;;;;5073119;28;20037;-83
2022/10/24 03:33:57;;;;;;;4.13;3.08;;;13.40;90.60;;;;;;5065721;28;20033;-83
2022/10/24 03:36:23;;;;;;;3.63;3.13;;;13.40;90.70;;;;;;5082599;28;20099;-83
2022/10/24 03:38:49;;;;;;;4.82;3.67;;;13.30;91.00;;;;;;5103311;28;20020;-83
2022/10/24 03:41:15;;;;;;;5.05;3.90;;;13.40;90.70;;;;;;5084048;28;20044;-83
2022/10/24 03:43:40;;;;;;;4.68;3.67;;;13.40;90.70;;;;;;5069373;28;20029;-83
2022/10/24 03:46:06;;;;;;;4.43;3.50;;;13.40;90.70;;;;;;5082421;28;20027;-83
2022/10/24 03:48:32;;;;;;;3.42;3.00;;;13.40;90.70;;;;;;5073385;28;20020;-83
2022/10/24 03:50:58;;;;;;;4.65;3.83;;;13.30;90.80;;;;;;5071419;28;20031;-83
2022/10/24 03:53:23;;;;;;;5.22;3.60;;;13.30;90.70;;;;;;5059468;28;20054;-83
2022/10/24 03:55:49;;;;;;;3.80;2.97;;;13.30;90.70;;;;;;5091540;28;20028;-83
2022/10/24 03:58:15;;;;;;;4.00;3.50;;;13.30;90.70;;;;;;5066170;28;20036;-83
2022/10/24 04:00:41;;;;;;;6.25;3.72;;;13.30;90.70;;;;;;5057921;28;20039;-83
2022/10/24 04:03:08;;;;;;;4.35;3.47;;;13.30;90.70;;;;;;5071532;28;20558;-84
2022/10/24 04:05:35;;;;;;;4.35;3.42;;;13.30;90.70;;;;;;5073210;28;20035;-83
2022/10/24 04:08:01;;;;;;;4.90;3.17;;;13.30;90.70;;;;;;5072526;28;20028;-83
2022/10/24 04:10:27;;;;;;;6.22;3.53;;;13.30;90.60;;;;;;5059122;28;20025;-83
2022/10/24 04:12:53;;;;;;;5.05;3.80;;;13.30;90.70;;;;;;5070556;28;20493;-83
2022/10/24 04:15:19;;;;;;;5.50;4.07;;;13.30;90.70;;;;;;5091812;28;20020;-83
2022/10/24 04:17:44;;;;;;;6.55;4.78;;;13.20;90.70;;;;;;5072864;28;20065;-83
2022/10/24 04:20:10;;;;;;;5.63;4.15;;;13.20;90.70;;;;;;5069628;28;20044;-83
2022/10/24 04:22:36;;;;;;;6.38;4.47;;;13.20;90.70;;;;;;5069881;28;20025;-83
2022/10/24 04:25:03;;;;;;;4.60;3.33;;;13.20;90.70;;;;;;5076416;28;20104;-83
2022/10/24 04:27:29;;;;;;;5.75;4.57;;;13.10;90.70;;;;;;5070288;28;20115;-83
2022/10/24 04:29:55;;;;;;;5.75;4.07;;;13.10;90.80;;;;;;5060898;28;20021;-83
2022/10/24 04:32:20;;;;;;;4.82;3.75;;;13.10;90.80;;;;;;5074248;28;20028;-83
2022/10/24 04:34:46;;;;;;;5.60;4.20;;;13.10;90.90;;;;;;5070943;28;20028;-83
2022/10/24 04:37:12;;;;;;;5.40;3.67;;;13.00;90.90;;;;;;5058120;28;20029;-83
2022/10/24 04:39:37;;;;;;;3.75;3.38;;;13.00;90.90;;;;;;5063937;28;20029;-83
2022/10/24 04:42:03;;;;;;;5.13;3.83;;;13.00;91.00;;;;;;5065741;28;20029;-83
2022/10/24 04:44:29;;;;;;;3.67;2.97;;;12.90;91.10;;;;;;5080579;28;20028;-83
2022/10/24 04:46:54;;;;;;;5.82;4.18;;;12.90;91.10;;;;;;5071321;28;20016;-83
2022/10/24 04:49:20;;;;;;;5.90;4.13;;;12.90;91.20;;;;;;5066940;28;20092;-83
2022/10/24 04:51:46;;;;;;;5.13;3.50;;;12.90;91.20;;;;;;5059115;28;20020;-83
2022/10/24 04:54:12;;;;;;;5.80;4.15;;;12.90;91.30;;;;;;5075169;28;20063;-83
2022/10/24 04:56:37;;;;;;;5.10;3.92;;;12.80;91.30;;;;;;5086481;28;20028;-83
2022/10/24 04:59:03;;;;;;;5.55;3.80;;;12.80;91.40;;;;;;5069008;28;20029;-83
2022/10/24 05:01:29;;;;;;;6.07;3.60;;;12.80;91.40;;;;;;5073230;28;20097;-83
2022/10/24 05:03:54;;;;;;;5.15;3.63;;;12.80;91.50;;;;;;5073795;28;20024;-83
2022/10/24 05:06:20;;;;;;;4.05;2.97;;;12.80;91.60;;;;;;5070788;28;20036;-83
2022/10/24 05:08:46;;;;;;;4.20;3.25;;;12.80;91.60;;;;;;5089523;28;20069;-83
2022/10/24 05:11:11;;;;;;;5.03;3.90;;;12.90;91.60;;;;;;5072487;28;20076;-83
2022/10/24 05:13:38;;;;;;;5.20;4.30;;;12.90;91.60;;;;;;5079496;28;20048;-83
2022/10/24 05:16:05;;;;;;;5.10;4.20;;;12.90;91.60;;;;;;5067952;28;20039;-83
2022/10/24 05:18:31;;;;;;;6.22;4.45;;;12.90;91.60;;;;;;5062900;28;20036;-83
2022/10/24 05:20:58;;;;;;;7.75;4.95;;;12.90;91.70;;;;;;5085134;28;20029;-83
2022/10/24 05:23:24;;;;;;;6.10;4.30;;;13.00;91.80;;;;;;5081516;28;20021;-83
2022/10/24 05:25:50;;;;;;;5.50;3.95;;;13.00;91.80;;;;;;5067216;28;20067;-83
2022/10/24 05:28:16;;;;;;;6.35;4.53;;;13.10;91.80;;;;;;5072633;28;20024;-83
2022/10/24 05:30:43;;;;;;;5.70;4.38;;;13.10;91.70;;;;;;5066276;28;20075;-83
2022/10/24 05:33:08;;;;;;;5.57;4.18;;;13.20;91.60;;;;;;5077351;28;20012;-85
2022/10/24 05:35:34;;;;;;;6.50;4.53;;;13.20;91.40;;;;;;5051202;28;20036;-85
2022/10/24 05:38:00;;;;;;;6.45;3.70;;;13.20;91.40;;;;;;5048467;28;20055;-86
2022/10/24 05:40:25;;;;;;;4.53;3.08;;;13.20;91.40;;;;;;5046145;28;20033;-85
2022/10/24 05:42:51;;;;;;;6.28;4.18;;;13.30;91.60;;;;;;5049868;28;20438;-85
2022/10/24 05:45:17;;;;;;;5.45;3.90;;;13.30;91.60;;;;;;5066733;28;20035;-85
2022/10/24 05:47:43;;;;;;;3.97;3.33;;;13.40;91.70;;;;;;5053177;28;20025;-85
2022/10/24 05:50:10;;;;;;;5.95;4.25;;;13.50;91.70;;;;;;5052203;28;20025;-85
2022/10/24 05:52:35;;;;;;;6.22;4.13;;;13.60;91.50;;;;;;5046317;28;20048;-85
2022/10/24 05:55:04;;;;;;;4.38;3.70;;;13.60;91.40;;;;;;5049340;28;20051;-85
2022/10/24 05:57:29;;;;;;;5.07;4.07;;;13.70;91.30;;;;;;5038875;28;20047;-85
2022/10/24 05:59:55;;;;;;;5.80;4.15;;;13.80;91.00;;;;;;5048146;28;20485;-85
2022/10/24 06:02:21;;;;;;;4.70;4.00;;;13.80;90.90;;;;;;5044492;28;20028;-85
2022/10/24 06:04:49;;;;;;;6.72;4.50;;;13.90;90.80;;;;;;5048373;28;20027;-84
2022/10/24 06:07:16;;;;;;;7.18;5.38;;;13.90;90.60;;;;;;5053289;28;20060;-83
2022/10/24 06:09:41;;;;;;;5.50;3.88;;;13.90;90.40;;;;;;5062426;28;20021;-83
2022/10/24 06:12:08;;;;;;;4.60;3.70;;;13.90;90.30;;;;;;5088260;28;20039;-84
2022/10/24 06:14:35;;;;;;;4.93;3.60;;;14.00;90.30;;;;;;5058874;28;20024;-83
2022/10/24 06:17:01;;;;;;;4.63;3.55;;;14.00;90.30;;;;;;5054520;28;20033;-83
2022/10/24 06:19:27;;;;;;;6.40;4.57;;;14.00;90.20;;;;;;5064728;28;20127;-84
2022/10/24 06:21:52;;;;;;;4.80;3.45;;;14.00;90.20;;;;;;5075486;28;20134;-82
2022/10/24 06:24:18;;;;;;;5.70;3.58;;;14.00;90.10;;;;;;5080685;28;20036;-82
2022/10/24 06:26:44;;;;;;;7.03;4.25;;;14.00;90.20;;;;;;5085272;28;20060;-82
2022/10/24 06:29:11;;;;;;;5.70;3.65;;;14.10;90.20;;;;;;5086714;28;20032;-83
2022/10/24 06:31:37;;;;;;;5.20;3.67;;;14.10;90.10;;;;;;5074647;28;20080;-83
2022/10/24 06:34:03;;;;;;;5.57;4.18;;;14.10;90.10;;;;;;5071697;28;20037;-82
2022/10/24 06:36:28;;;;;;;4.85;3.75;;;14.20;90.10;;;;;;5063955;28;20043;-82
2022/10/24 06:38:56;;;;;;;4.13;3.35;;;14.30;90.10;;;;;;5066663;28;20074;-83
2022/10/24 06:41:22;;;;;;;5.88;4.32;;;14.30;90.10;;;;;;5060056;28;20029;-82
2022/10/24 06:43:48;;;;;;;5.57;3.95;;;14.30;89.80;;;;;;5062672;28;20029;-83
2022/10/24 06:46:15;;;;;;;5.10;4.18;;;14.40;89.60;;;;;;5058401;28;20028;-84
2022/10/24 06:48:41;;;;;;;5.15;3.65;;;14.40;89.40;;;;;;5064986;28;20025;-83
2022/10/24 06:51:07;;;;;;;5.45;4.13;;;14.40;89.40;;;;;;5085670;28;20025;-84
2022/10/24 06:53:33;;;;;;;5.25;3.88;;;14.40;89.40;;;;;;5067386;28;20024;-83
2022/10/24 06:56:01;;;;;;;6.18;3.78;;;14.50;89.50;;;;;;5073745;28;20024;-84
2022/10/24 06:58:35;;;;;;;5.97;4.30;;;14.50;89.50;;;;;;5086896;28;20012;-84
2022/10/24 07:01:07;;;;;;;6.78;4.47;;;14.50;89.20;;;;;;5069570;28;20028;-82
2022/10/24 07:03:33;;;;;;;4.55;4.00;;;14.60;89.00;;;;;;5057483;28;20241;-83
2022/10/24 07:06:05;;;;;;;5.57;4.03;;;14.60;88.90;;;;;;5074857;28;20039;-83
2022/10/24 07:08:30;;;;;;;5.75;4.10;;;14.60;88.70;;;;;;5066460;28;20032;-83
2022/10/24 07:10:56;;;;;;;9.63;4.93;;;14.70;88.80;;;;;;5075979;28;20028;-84
2022/10/24 07:13:22;;;;;;;6.82;4.50;;;14.70;88.60;;;;;;5049672;28;20049;-83
2022/10/24 07:15:53;;;;;;;6.22;4.35;;;14.70;88.40;;;;;;5068104;28;20020;-83
2022/10/24 07:18:19;;;;;;;5.25;4.15;;;14.70;88.40;;;;;;5054518;28;20369;-83
2022/10/24 07:20:45;;;;;;;5.53;3.90;;;14.70;88.40;;;;;;5051011;28;20029;-83
2022/10/24 07:23:11;;;;;;;7.13;4.63;;;14.80;88.40;;;;;;5056534;28;20039;-83
2022/10/24 07:25:40;;;;;;;6.05;4.43;;;14.70;88.40;;;;;;5045100;28;20108;-84
2022/10/24 07:28:07;;;;;;;4.93;3.92;;;14.80;88.40;;;;;;5045035;28;20023;-82
2022/10/24 07:30:34;;;;;;;5.80;4.63;;;14.80;88.50;;;;;;5031706;28;21140;-84
2022/10/24 07:32:59;;;;;;;5.53;4.05;;;14.80;88.20;;;;;;5066783;28;20013;-83
2022/10/24 07:35:25;;;;;;;6.35;4.00;;;14.90;88.30;;;;;;5048060;28;20039;-84
2022/10/24 07:37:52;;;;;;;5.45;4.40;;;14.90;88.20;;;;;;5060952;28;20032;-85
2022/10/24 07:40:18;;;;;;;4.95;3.67;;;14.90;88.00;;;;;;5069470;28;20061;-84
2022/10/24 07:42:44;;;;;;;5.00;4.05;;;14.90;88.60;;;;;;5044941;28;20153;-84
2022/10/24 07:45:10;;;;;;;4.88;4.10;;;15.00;87.90;;;;;;5044328;28;20063;-84
2022/10/24 07:47:36;;;;;;;5.00;3.67;;;15.00;88.00;;;;;;5055572;28;20029;-85
2022/10/24 07:50:03;;;;;;;5.13;3.85;;;15.00;87.90;;;;;;5037162;28;20031;-85
2022/10/24 07:52:29;;;;;;;4.68;4.15;;;15.00;87.70;;;;;;5035835;28;20134;-85
2022/10/24 07:54:55;;;;;;;6.00;4.28;;;15.00;87.50;;;;;;5065507;28;20037;-85
2022/10/24 07:57:21;;;;;;;6.13;4.38;;;15.00;87.50;;;;;;5049908;28;20020;-84
2022/10/24 07:59:46;;;;;;;6.55;4.90;;;15.00;87.50;;;;;;5050306;28;20152;-84
2022/10/24 08:02:14;;;;;;;5.82;4.50;;;15.00;87.40;;;;;;5047694;28;20237;-84
2022/10/24 08:04:40;;;;;;;5.35;3.95;;;15.00;87.30;;;;;;5047123;28;20059;-85
2022/10/24 08:07:11;;;;;;;5.28;4.15;;;15.10;87.30;;;;;;5033938;28;20065;-84
2022/10/24 08:09:39;;;;;;;4.90;4.13;;;15.10;87.40;;;;;;5072190;28;20380;-85
2022/10/24 08:12:05;;;;;;;6.20;4.43;;;15.10;87.30;;;;;;5057607;28;20020;-86
2022/10/24 08:14:31;;;;;;;5.88;4.78;;;15.10;87.20;;;;;;5040451;28;20067;-83
2022/10/24 08:16:56;;;;;;;6.63;4.95;;;15.10;87.10;;;;;;5049595;28;20037;-83
2022/10/24 08:19:22;;;;;;;7.18;5.50;;;15.20;87.20;;;;;;5033845;28;20055;-83
2022/10/24 08:21:49;;;;;;;6.07;4.28;;;15.20;86.90;;;;;;5029282;28;20040;-83
2022/10/24 08:24:15;;;;;;;5.55;4.40;;;15.20;86.90;;;;;;5036440;28;20152;-84
2022/10/24 08:26:41;;;;;;;7.13;5.05;;;15.20;86.90;;;;;;5044783;28;20025;-83
2022/10/24 08:29:10;;;;;;;7.78;5.57;;;15.20;86.60;;;;;;5030997;28;20029;-83
2022/10/24 08:31:36;;;;;;;6.30;4.80;;;15.20;86.50;;;;;;5025775;28;20026;-84
2022/10/24 08:34:04;;;;;;;6.68;4.68;;;15.20;86.60;;;;;;5026457;28;20059;-83
2022/10/24 08:36:33;;;;;;;7.30;4.47;;;15.20;86.50;;;;;;5027513;28;20041;-83
2022/10/24 08:38:59;;;;;;;8.02;5.75;;;15.30;86.40;;;;;;5023414;28;20033;-83
2022/10/24 08:41:42;;;;;;;6.93;5.15;;;15.30;86.30;;;;;;5023429;28;20025;-83
2022/10/24 08:44:34;;;;;;;6.75;5.35;;;15.30;86.10;;;;;;5024138;28;20124;-83
2022/10/24 08:47:28;;;;;;;6.05;5.03;;;15.30;85.80;;;;;;5024388;28;20029;-84
2022/10/24 08:50:20;;;;;;;5.45;4.30;;;15.30;85.80;;;;;;5040200;28;20032;-84
2022/10/24 08:52:48;;;;;;;;;;;15.30;85.90;;;;;;5030148;28;20361;-84
2022/10/24 08:55:19;;;;;;;6.70;5.03;;;15.30;85.90;;;;;;5022423;28;20378;-83
2022/10/24 08:57:51;;;;;;;6.95;5.00;;;15.40;86.00;;;;;;5032563;28;20066;-84
2022/10/24 09:00:25;;;;;;;6.13;5.03;;;15.40;85.90;;;;;;5032002;28;20097;-84
2022/10/24 09:03:02;;;;;;;6.60;5.60;;;15.40;85.90;;;;;;5025798;28;20037;-83
2022/10/24 09:05:42;;;;;;;6.45;5.00;;;15.40;85.80;;;;;;5030424;28;20032;-83
2022/10/24 09:08:42;;;;;;;7.03;5.18;;;15.40;86.50;;;;;;5029329;28;20025;-83
2022/10/24 09:11:25;;;;;;;6.70;5.57;;;15.50;85.80;;;;;;5010898;28;20036;-83
2022/10/24 09:13:51;;;;;;;6.72;5.38;;;15.50;85.90;;;;;;5036743;28;20128;-83
2022/10/24 09:16:22;;;;;;;5.45;4.75;;;15.50;85.90;;;;;;5054872;28;20025;-82
2022/10/24 09:18:53;;;;;;;5.55;4.60;;;15.60;85.70;;;;;;5025976;28;20024;-83
2022/10/24 09:21:20;;;;;;;6.03;4.80;;;15.60;85.70;;;;;;5033113;28;20025;-83
2022/10/24 09:23:46;;;;;;;6.85;4.60;;;15.60;85.80;;;;;;5030410;28;20189;-84
2022/10/24 09:26:26;;;;;;;5.00;4.13;;;15.60;85.60;;;;;;5029354;28;20041;-82
2022/10/24 09:28:54;;;;;;;5.68;4.40;;;15.70;85.50;;;;;;5026603;28;20127;-84
2022/10/24 09:31:24;;;;;;;5.13;4.40;;;15.70;85.40;;;;;;5029005;28;20048;-83
2022/10/24 09:33:53;;;;;;;5.78;4.18;;;15.70;85.30;;;;;;5040020;28;20112;-83
2022/10/24 09:36:21;;;;;;;5.53;4.35;;;15.70;85.20;;;;;;5026225;28;20036;-82
2022/10/24 09:38:50;;;;;;;6.15;4.55;;;15.70;85.10;;;;;;5031348;28;20029;-81
2022/10/24 09:41:26;;;;;;;5.10;4.45;;;15.80;85.80;;;;;;5024037;28;20027;-83
2022/10/24 09:43:57;;;;;;;5.15;4.00;;;15.80;85.00;;;;;;5048700;28;20092;-82
2022/10/24 09:46:25;;;;;;;5.57;3.80;;;15.80;85.00;;;;;;5045165;28;20036;-82
2022/10/24 09:49:18;;;;;;;5.50;3.90;;;15.80;85.00;;;;;;5036328;28;20075;-82
2022/10/24 09:51:57;;;;;;;5.72;4.35;;;15.80;84.70;;;;;;5030275;28;20028;-83
2022/10/24 09:54:26;;;;;;;4.80;3.83;;;15.90;84.80;;;;;;5053227;28;20040;-83
2022/10/24 09:56:54;;;;;;;4.72;4.05;;;15.90;84.80;;;;;;5054103;28;20040;-84
2022/10/24 09:59:43;;;;;;;5.00;4.18;;;15.90;84.60;;;;;;5029353;28;20126;-83
2022/10/24 10:02:33;;;;;;;5.93;4.72;;;15.90;84.40;;;;;;5047679;28;20094;-84
2022/10/24 10:05:01;;;;;;;5.68;4.68;;;15.90;84.50;;;;;;5050946;28;20021;-84
2022/10/24 10:07:33;;;;;;;6.10;4.35;;;16.00;84.50;;;;;;5025854;28;20033;-85
2022/10/24 10:10:06;;;;;;;5.85;4.75;;;16.00;84.50;;;;;;5012579;28;20727;-84
2022/10/24 10:12:35;;;;;;;5.57;4.40;;;16.00;84.40;;;;;;5039811;28;20050;-84
2022/10/24 10:15:25;;;;;;;5.45;4.65;;;16.00;84.30;;;;;;5045450;28;20071;-84
2022/10/24 10:17:55;;;;;;;5.75;4.55;;;16.00;84.20;;;;;;5047528;28;20708;-83
2022/10/24 10:20:33;;;;;;;5.85;4.10;;;16.00;84.20;;;;;;5049421;28;20088;-84
2022/10/24 10:23:24;;;;;;;4.95;3.95;;;16.00;84.00;;;;;;5044550;28;20038;-84
2022/10/24 10:26:05;;;;;;;4.88;3.80;;;16.00;84.00;;;;;;5054512;28;20029;-84
2022/10/24 10:28:34;;;;;;;4.70;4.05;;;16.10;83.90;;;;;;5049976;28;20035;-85
2022/10/24 10:31:00;;;;;;;4.75;4.00;;;16.10;83.80;;;;;;5046407;28;20029;-83
2022/10/24 10:33:29;;;;;;;3.80;3.35;;;16.00;83.50;;;;;;5048055;28;21552;-83
2022/10/24 10:36:03;;;;;;;5.80;3.97;;;16.00;83.40;;;;;;5068839;28;20028;-83
2022/10/24 10:38:47;;;;;;;4.88;3.78;;;16.00;83.30;;;;;;5045440;28;20029;-83
2022/10/24 10:41:21;;;;;;;4.47;3.33;;;15.90;83.40;;;;;;5035767;28;20668;-84
2022/10/24 10:44:12;;;;;;;5.25;3.95;;;15.90;83.40;;;;;;5038558;28;20554;-85
2022/10/24 10:47:05;;;;;;;5.07;4.00;;;15.90;83.40;;;;;;5053621;28;20503;-85
2022/10/24 10:49:38;;;;;;;4.20;3.33;;;15.90;83.60;;;;;;5047413;28;20032;-85
2022/10/24 10:52:24;;;;;;;3.90;3.45;;;15.90;83.60;;;;;;5046860;28;20116;-84
2022/10/24 10:55:08;;;;;;;3.88;3.25;;;15.90;83.60;;;;;;5053149;28;20032;-84
2022/10/24 10:58:03;;;;;;;4.57;3.58;;;15.90;83.60;;;;;;5056678;28;20023;-84
2022/10/24 11:00:41;;;;;;;4.18;2.88;;;16.00;83.60;;;;;;5079856;28;20629;-85
2022/10/24 11:03:34;;;;;;;4.38;3.33;;;16.00;83.50;;;;;;5055681;28;20036;-85
2022/10/24 11:06:14;;;;;;;5.93;3.58;;;16.00;83.40;;;;;;5049032;28;20314;-85
2022/10/24 11:09:15;;;;;;;4.07;3.37;;;16.00;83.20;;;;;;5046329;28;20704;-84
2022/10/24 11:11:47;;;;;;;3.65;2.92;;;16.00;83.10;;;;;;5040818;28;20270;-85
2022/10/24 11:14:37;;;;;;;5.13;3.35;;;16.10;83.20;;;;;;5046306;28;20649;-85
2022/10/24 11:17:26;;;;;;;5.18;4.03;;;16.10;83.70;;;;;;5046093;28;20110;-84
2022/10/24 11:20:10;;;;;;;7.43;3.88;;;16.10;82.90;;;;;;5035179;28;20050;-85
2022/10/24 11:22:42;;;;;;;4.85;3.83;;;16.10;82.90;;;;;;5030667;28;20024;-85
2022/10/24 11:25:28;;;;;;;6.18;4.53;;;16.10;82.90;;;;;;5036088;28;20028;-85
2022/10/24 11:28:06;;;;;;;5.00;3.47;;;16.10;82.80;;;;;;5045406;28;20063;-85
2022/10/24 11:30:42;;;;;;;5.65;3.80;;;16.00;82.80;;;;;;5059742;28;20036;-85
2022/10/24 11:33:15;;;;;;;4.07;3.38;;;16.00;82.90;;;;;;5044502;28;20040;-85
2022/10/24 11:36:00;;;;;;;6.88;4.75;;;16.00;82.90;;;;;;5072519;28;20035;-87
2022/10/24 11:38:29;;;;;;;5.93;3.95;;;16.00;82.70;;;;;;5053400;28;20035;-83
2022/10/24 11:41:03;;;;;;;5.95;4.25;;;15.90;82.80;;;;;;5051960;28;20029;-85
2022/10/24 11:43:39;;;;;;;5.40;3.85;;;16.00;82.90;;;;;;5043421;28;20169;-84
2022/10/24 11:46:19;;;;;;;4.47;3.50;;;15.90;82.70;;;;;;5067070;28;20322;-84
2022/10/24 11:48:45;;;;;;;4.93;3.70;;;15.90;82.90;;;;;;5037430;28;20648;-85
2022/10/24 11:51:36;;;;;;;6.32;4.05;;;15.90;82.90;;;;;;5034116;28;20056;-86
2022/10/24 11:54:25;;;;;;;4.90;4.03;;;15.90;82.90;;;;;;5033509;28;20474;-85
2022/10/24 11:56:58;;;;;;;4.70;3.60;;;16.00;82.80;;;;;;5051799;28;20082;-83
2022/10/24 11:59:24;;;;;;;5.63;4.05;;;16.00;82.90;;;;;;5049779;28;21882;-83
2022/10/24 12:01:57;;;;;;;5.45;3.80;;;16.00;82.90;;;;;;5044379;28;20054;-84
2022/10/24 12:05:02;;;;;;;5.50;4.07;;;16.00;82.90;;;;;;5041519;28;20045;-85
2022/10/24 12:07:52;;;;;;;4.68;3.45;;;16.00;82.70;;;;;;5056624;28;20029;-85
2022/10/24 12:10:48;;;;;;;5.65;3.92;;;16.00;82.60;;;;;;5046123;28;20051;-85
2022/10/24 12:13:41;;;;;;;5.05;3.95;;;16.00;82.50;;;;;;5048355;28;20037;-84
2022/10/24 12:16:31;;;;;;;4.68;3.40;;;16.00;82.50;;;;;;5066356;28;20527;-84
2022/10/24 12:19:00;;;;;;;5.30;3.95;;;16.00;82.50;;;;;;5064017;28;20768;-84
2022/10/24 12:21:33;;;;;;;4.97;3.33;;;16.00;82.50;;;;;;5049570;28;20392;-84
2022/10/24 12:24:00;;;;;;;4.32;3.42;;;16.00;82.60;;;;;;5039142;28;20033;-85
2022/10/24 12:26:26;;;;;;;3.72;3.03;;;16.00;82.70;;;;;;5044389;28;20101;-84
2022/10/24 12:28:59;;;;;;;4.38;3.00;;;16.00;82.60;;;;;;5051008;28;20032;-84
2022/10/24 12:31:30;;;;;;;4.05;3.20;;;16.00;82.60;;;;;;5045036;28;20106;-86
2022/10/24 12:34:15;;;;;;;5.55;4.10;;;16.00;82.50;;;;;;5066098;28;20046;-84
2022/10/24 12:37:01;;;;;;;4.75;3.45;;;16.00;82.50;;;;;;5048262;28;20035;-85
2022/10/24 12:39:44;;;;;;;5.18;3.70;;;16.10;82.40;;;;;;5046654;28;20495;-85
2022/10/24 12:42:20;;;;;;;6.28;4.35;;;16.10;82.40;;;;;;5048484;28;20114;-83
2022/10/24 12:44:49;;;;;;;5.90;4.30;;;16.10;82.30;;;;;;5037011;28;20020;-84
2022/10/24 12:47:35;;;;;;;6.65;4.28;;;16.00;82.30;;;;;;5040485;28;20083;-85
2022/10/24 12:50:22;;;;;;;5.80;4.40;;;16.00;82.30;;;;;;5042299;28;20035;-86
2022/10/24 12:53:19;;;;;;;6.25;3.90;;;16.00;82.30;;;;;;5044571;28;20020;-85
2022/10/24 12:55:50;;;;;;;5.40;3.67;;;16.00;82.30;;;;;;5052585;28;20048;-84
2022/10/24 12:58:33;;;;;;;5.30;3.67;;;16.00;82.40;;;;;;5055359;28;20735;-84
2022/10/24 13:01:08;;;;;;;6.60;4.70;;;16.00;82.50;;;;;;5024879;28;20032;-85
2022/10/24 13:03:49;;;;;;;6.75;4.60;;;16.00;82.50;;;;;;5045185;28;20119;-85
2022/10/24 13:06:34;;;;;;;6.43;4.35;;;16.10;82.50;;;;;;5037272;28;21043;-86
2022/10/24 13:09:19;;;;;;;6.03;4.25;;;16.10;83.00;;;;;;5042667;28;20449;-84